Time;durP1;ratioP1;P1;durP2;ratioP2;P2;SDS_P1;SDS_P2;PMS_P1;PMS_P2;Temp;Humidity;BMP_temperature;BMP_pressure;BME280_temperature;BME280_humidity;BME280_pressure;Samples;Min_cycle;Max_cycle;Signal;HPM_P1;HPM_P2
2023/09/09 00:01:31;;;;;;;20.05;17.98;;;23.70;1.00;;;;;;4969040;28;20039;-32
2023/09/09 00:03:57;;;;;;;20.20;18.27;;;24.40;1.00;;;;;;4970422;28;20035;-32
2023/09/09 00:06:23;;;;;;;22.08;19.77;;;23.90;1.00;;;;;;4970332;28;20039;-32
2023/09/09 00:08:49;;;;;;;19.38;17.48;;;23.50;1.00;;;;;;4970711;28;20039;-32
2023/09/09 00:11:14;;;;;;;19.30;17.30;;;24.30;1.00;;;;;;4970611;28;20049;-32
2023/09/09 00:13:40;;;;;;;21.38;18.88;;;23.20;1.00;;;;;;4973115;28;20034;-32
2023/09/09 00:16:06;;;;;;;23.38;21.08;;;24.40;1.00;;;;;;4973126;28;20411;-32
2023/09/09 00:18:32;;;;;;;20.83;18.80;;;23.00;1.00;;;;;;4974076;28;20050;-32
2023/09/09 00:20:57;;;;;;;20.70;18.60;;;23.50;1.00;;;;;;4974098;28;20097;-32
2023/09/09 00:23:23;;;;;;;21.75;19.45;;;23.70;1.00;;;;;;4966059;28;20444;-32
2023/09/09 00:25:50;;;;;;;19.85;17.85;;;23.80;1.00;;;;;;4972307;28;20031;-32
2023/09/09 00:28:15;;;;;;;21.05;18.85;;;23.50;1.00;;;;;;4973501;28;20039;-32
2023/09/09 00:30:42;;;;;;;21.75;19.65;;;23.30;1.00;;;;;;4950874;28;20103;-32
2023/09/09 00:33:08;;;;;;;19.33;17.33;;;23.40;1.00;;;;;;5029612;22;20051;-87
2023/09/09 00:35:37;;;;;;;23.00;18.80;;;23.60;4.80;;;;;;4956895;28;20070;-87
2023/09/09 00:38:03;;;;;;;22.63;20.42;;;23.40;5.20;;;;;;4975190;28;20113;-87
2023/09/09 00:40:29;;;;;;;21.38;19.17;;;23.50;24.30;;;;;;4974176;28;20150;-87
2023/09/09 00:42:54;;;;;;;20.65;18.55;;;23.70;25.20;;;;;;4957663;28;20096;-88
2023/09/09 00:45:20;;;;;;;21.85;19.65;;;23.10;28.30;;;;;;4973268;28;20055;-87
2023/09/09 00:47:46;;;;;;;18.88;17.08;;;23.10;36.80;;;;;;4973353;28;20035;-87
2023/09/09 00:50:13;;;;;;;21.88;19.67;;;23.00;20.00;;;;;;4957153;28;20046;-87
2023/09/09 00:52:40;;;;;;;22.75;20.65;;;23.00;40.50;;;;;;4966498;28;20521;-87
2023/09/09 00:55:07;;;;;;;24.17;21.83;;;24.10;10.90;;;;;;4969986;28;20043;-87
2023/09/09 00:57:33;;;;;;;19.92;17.90;;;23.40;8.20;;;;;;4957023;28;20098;-86
2023/09/09 01:00:09;;;;;;;25.02;22.42;;;23.70;32.60;;;;;;4956618;28;20042;-86
2023/09/09 01:02:36;;;;;;;23.75;21.33;;;23.70;18.40;;;;;;4973216;28;20050;-86
2023/09/09 01:05:03;;;;;;;24.17;21.88;;;24.00;17.70;;;;;;4956934;28;20490;-87
2023/09/09 01:07:48;;;;;;;22.70;19.38;;;23.00;21.30;;;;;;4955012;28;20441;-86
2023/09/09 01:10:15;;;;;;;20.67;18.65;;;22.00;11.60;;;;;;4955358;28;20055;-86
2023/09/09 01:12:42;;;;;;;22.85;20.60;;;23.40;41.10;;;;;;4973103;28;20487;-85
2023/09/09 01:15:08;;;;;;;23.20;20.77;;;22.10;53.10;;;;;;4956958;28;20046;-85
2023/09/09 01:17:36;;;;;;;25.20;22.67;;;23.30;30.30;;;;;;4973280;28;20039;-86
2023/09/09 01:20:08;;;;;;;23.92;21.52;;;23.30;36.90;;;;;;4973833;28;20512;-86
2023/09/09 01:22:36;;;;;;;23.63;21.17;;;23.00;54.10;;;;;;4949569;28;20038;-86
2023/09/09 01:25:05;;;;;;;22.45;20.23;;;23.40;61.90;;;;;;4955683;28;20038;-85
2023/09/09 01:27:31;;;;;;;21.67;19.58;;;23.30;87.20;;;;;;4973110;28;20039;-85
2023/09/09 01:29:58;;;;;;;22.92;20.65;;;24.60;88.50;;;;;;4972787;28;20039;-85
2023/09/09 01:32:24;;;;;;;24.02;21.50;;;23.00;95.00;;;;;;4973258;28;20043;-87
2023/09/09 01:34:51;;;;;;;22.00;19.80;;;22.00;99.90;;;;;;4956696;28;20105;-87
2023/09/09 01:37:17;;;;;;;22.88;20.58;;;23.00;99.90;;;;;;4973512;28;20046;-87
2023/09/09 01:39:43;;;;;;;21.55;19.35;;;22.50;99.90;;;;;;4956771;28;20061;-87
2023/09/09 01:42:08;;;;;;;22.27;19.95;;;23.50;99.90;;;;;;4956572;28;20428;-87
2023/09/09 01:44:34;;;;;;;22.17;19.98;;;23.10;99.90;;;;;;4974751;28;20046;-87
2023/09/09 01:47:00;;;;;;;21.70;19.38;;;23.50;99.90;;;;;;4973788;28;20109;-87
2023/09/09 01:49:25;;;;;;;20.92;18.65;;;23.50;99.90;;;;;;4972617;28;20168;-87
2023/09/09 01:51:51;;;;;;;22.85;20.50;;;22.40;99.90;;;;;;4972650;28;20490;-87
2023/09/09 01:54:17;;;;;;;21.85;19.65;;;22.80;99.90;;;;;;4970558;28;20035;-87
2023/09/09 01:56:42;;;;;;;22.65;20.30;;;23.10;99.90;;;;;;4973205;28;20030;-87
2023/09/09 01:59:08;;;;;;;21.20;18.88;;;23.00;99.90;;;;;;4972091;28;20066;-87
2023/09/09 02:01:34;;;;;;;22.05;19.85;;;25.30;99.90;;;;;;4972473;28;20046;-87
2023/09/09 02:03:59;;;;;;;22.77;20.42;;;22.90;99.90;;;;;;4973032;28;20031;-87
2023/09/09 02:06:27;;;;;;;23.20;20.80;;;23.60;99.90;;;;;;4972201;28;20046;-85
2023/09/09 02:08:52;;;;;;;23.75;21.48;;;22.90;99.90;;;;;;4972010;28;20045;-85
2023/09/09 02:11:19;;;;;;;23.52;21.17;;;22.90;99.90;;;;;;4972315;28;20050;-86
2023/09/09 02:13:44;;;;;;;23.52;21.10;;;23.10;99.90;;;;;;4956175;28;20043;-85
2023/09/09 02:16:10;;;;;;;23.65;21.17;;;22.70;99.90;;;;;;4955558;28;20047;-85
2023/09/09 02:18:39;;;;;;;22.67;20.48;;;23.10;99.90;;;;;;4972176;28;20042;-86
2023/09/09 02:21:08;;;;;;;22.90;20.60;;;22.70;99.90;;;;;;4972039;28;20039;-86
2023/09/09 02:23:34;;;;;;;21.08;18.98;;;23.00;99.90;;;;;;4955208;28;20498;-86
2023/09/09 02:25:59;;;;;;;22.23;20.00;;;22.60;99.90;;;;;;4972898;28;20078;-85
2023/09/09 02:28:25;;;;;;;22.10;19.90;;;22.80;99.90;;;;;;4972577;28;20449;-86
2023/09/09 02:30:51;;;;;;;22.00;19.77;;;22.70;99.90;;;;;;4972469;28;20529;-85
2023/09/09 02:33:16;;;;;;;23.25;19.92;;;23.20;99.90;;;;;;4954212;28;20065;-85
2023/09/09 02:35:43;;;;;;;22.60;20.30;;;24.60;99.90;;;;;;4990784;23;20907;-33
2023/09/09 02:38:08;;;;;;;22.63;20.13;;;22.60;99.90;;;;;;4984533;28;20038;-36
2023/09/09 02:40:34;;;;;;;22.27;19.90;;;23.00;99.90;;;;;;4975099;28;20038;-33
2023/09/09 02:43:00;;;;;;;21.52;19.40;;;22.60;99.90;;;;;;4978517;28;20584;-33
2023/09/09 02:45:26;;;;;;;21.17;18.88;;;22.30;99.90;;;;;;4973946;28;20062;-35
2023/09/09 02:47:51;;;;;;;20.65;18.55;;;22.70;99.90;;;;;;4980559;28;20026;-36
2023/09/09 02:50:17;;;;;;;20.92;18.77;;;22.80;99.90;;;;;;4957923;28;20049;-37
2023/09/09 02:52:43;;;;;;;21.42;19.23;;;22.40;99.90;;;;;;4977890;28;20572;-35
2023/09/09 02:55:08;;;;;;;19.65;17.63;;;22.20;99.90;;;;;;4974848;28;20105;-33
2023/09/09 02:57:34;;;;;;;19.85;17.85;;;22.50;99.90;;;;;;4973130;28;20050;-33
2023/09/09 02:59:59;;;;;;;21.90;18.85;;;22.60;99.90;;;;;;4976759;28;20117;-37
2023/09/09 03:02:25;;;;;;;21.70;19.50;;;22.50;99.90;;;;;;4972805;28;20034;-36
2023/09/09 03:04:51;;;;;;;21.67;19.42;;;22.50;99.90;;;;;;4979305;28;20055;-33
2023/09/09 03:07:16;;;;;;;19.65;17.63;;;22.20;99.90;;;;;;4995014;22;20129;-30
2023/09/09 03:09:42;;;;;;;19.58;17.58;;;22.50;99.90;;;;;;4989650;28;21933;-31
2023/09/09 03:12:08;;;;;;;19.50;17.45;;;22.40;99.90;;;;;;4989849;28;20505;-31
2023/09/09 03:14:34;;;;;;;19.55;17.55;;;22.50;99.90;;;;;;4970836;28;20043;-31
2023/09/09 03:17:03;;;;;;;18.13;16.23;;;22.30;99.90;;;;;;4971414;28;20042;-31
2023/09/09 03:19:29;;;;;;;17.42;15.63;;;22.30;99.90;;;;;;4970804;28;20050;-30
2023/09/09 03:21:55;;;;;;;17.30;15.55;;;22.40;99.90;;;;;;4971101;28;20537;-32
2023/09/09 03:24:20;;;;;;;15.98;14.00;;;22.20;99.90;;;;;;4967799;28;20034;-31
2023/09/09 03:26:46;;;;;;;16.30;14.15;;;22.10;99.90;;;;;;4974811;28;20053;-31
2023/09/09 03:29:12;;;;;;;14.48;13.00;;;22.40;99.90;;;;;;4971220;28;20057;-32
2023/09/09 03:31:38;;;;;;;15.20;13.70;;;22.20;99.90;;;;;;4974363;28;20496;-32
2023/09/09 03:34:03;;;;;;;14.85;13.05;;;22.30;99.90;;;;;;4975709;28;20089;-31
2023/09/09 03:36:29;;;;;;;15.82;13.68;;;21.90;99.90;;;;;;4973131;28;20046;-31
2023/09/09 03:38:55;;;;;;;14.85;13.30;;;22.20;99.90;;;;;;4976641;28;20039;-31
2023/09/09 03:41:20;;;;;;;17.40;14.50;;;22.10;99.90;;;;;;4972755;28;20512;-30
2023/09/09 03:43:46;;;;;;;16.05;14.40;;;22.30;99.90;;;;;;4975911;28;20082;-31
2023/09/09 03:46:11;;;;;;;15.30;13.75;;;22.20;99.90;;;;;;4963805;28;20074;-31
2023/09/09 03:48:37;;;;;;;15.95;14.25;;;22.00;99.90;;;;;;4977221;28;20046;-30
2023/09/09 03:51:03;;;;;;;15.13;13.52;;;22.20;99.90;;;;;;4979778;28;20056;-30
2023/09/09 03:53:29;;;;;;;14.75;13.25;;;22.20;99.90;;;;;;4975181;28;20493;-31
2023/09/09 03:55:55;;;;;;;16.60;13.18;;;22.50;99.90;;;;;;4983402;28;20030;-31
2023/09/09 03:58:21;;;;;;;15.50;13.82;;;22.20;99.90;;;;;;4978569;28;20090;-30
2023/09/09 04:00:47;;;;;;;15.23;13.68;;;22.40;99.90;;;;;;4981482;28;20038;-30
2023/09/09 04:03:13;;;;;;;16.55;14.75;;;21.90;99.90;;;;;;4979004;28;20049;-31
2023/09/09 04:05:40;;;;;;;15.93;14.15;;;21.90;99.90;;;;;;4977470;28;20418;-30
2023/09/09 04:08:09;;;;;;;16.90;13.55;;;22.10;99.90;;;;;;4979048;28;20085;-30
2023/09/09 04:10:35;;;;;;;15.98;14.23;;;22.10;99.90;;;;;;4954319;28;20408;-31
2023/09/09 04:13:01;;;;;;;18.40;15.18;;;22.30;99.90;;;;;;4983285;28;20108;-30
2023/09/09 04:15:27;;;;;;;16.55;14.85;;;22.00;99.90;;;;;;4976532;28;20494;-30
2023/09/09 04:17:52;;;;;;;17.98;15.35;;;21.90;99.90;;;;;;4977160;28;20125;-30
2023/09/09 04:20:18;;;;;;;17.08;15.23;;;21.90;99.90;;;;;;4966889;28;20039;-32
2023/09/09 04:22:44;;;;;;;17.40;15.27;;;22.10;99.90;;;;;;4968702;28;20086;-31
2023/09/09 04:25:09;;;;;;;18.70;16.70;;;21.20;99.90;;;;;;4976952;28;20073;-31
2023/09/09 04:27:35;;;;;;;20.75;17.52;;;21.90;99.90;;;;;;4975408;28;20089;-32
2023/09/09 04:30:01;;;;;;;18.33;16.50;;;22.10;99.90;;;;;;4981276;28;20636;-30
2023/09/09 04:32:26;;;;;;;19.48;15.85;;;22.10;99.90;;;;;;4974722;28;20039;-30
2023/09/09 04:34:52;;;;;;;19.95;17.83;;;21.80;99.90;;;;;;4978199;28;20073;-30
2023/09/09 04:37:18;;;;;;;17.98;15.95;;;21.10;99.90;;;;;;4977169;28;20039;-30
2023/09/09 04:39:43;;;;;;;16.42;14.73;;;22.10;99.90;;;;;;4975686;28;20050;-30
2023/09/09 04:42:09;;;;;;;19.33;17.08;;;21.20;99.90;;;;;;4978364;28;20596;-31
2023/09/09 04:44:35;;;;;;;16.15;14.43;;;21.70;99.90;;;;;;4975436;28;20047;-30
2023/09/09 04:47:21;;;;;;;14.10;12.30;;;22.10;99.90;;;;;;4982061;28;20070;-31
2023/09/09 04:50:21;;;;;;;11.95;10.45;;;22.10;99.90;;;;;;4967513;28;20039;-30
2023/09/09 04:53:05;;;;;;;10.70;8.98;;;22.00;99.90;;;;;;4974209;28;20042;-30
2023/09/09 04:55:37;;;;;;;10.27;7.78;;;21.90;99.90;;;;;;4964296;28;20534;-30
2023/09/09 04:58:05;;;;;;;9.30;7.15;;;21.70;99.90;;;;;;4969994;28;20505;-30
2023/09/09 05:00:31;;;;;;;8.68;7.47;;;21.70;99.90;;;;;;4971681;28;20449;-30
2023/09/09 05:02:56;;;;;;;9.38;7.43;;;20.90;99.90;;;;;;4970844;28;20038;-30
2023/09/09 05:05:22;;;;;;;8.98;7.22;;;21.90;99.90;;;;;;4972830;28;20043;-30
2023/09/09 05:07:50;;;;;;;9.45;7.18;;;21.50;99.90;;;;;;4970435;28;20038;-30
2023/09/09 05:10:16;;;;;;;9.43;8.00;;;21.80;99.90;;;;;;4973050;28;20126;-30
2023/09/09 05:12:42;;;;;;;10.10;7.78;;;21.60;99.90;;;;;;4972448;28;20497;-31
2023/09/09 05:15:10;;;;;;;10.15;7.70;;;21.80;99.90;;;;;;4973031;28;20113;-31
2023/09/09 05:17:35;;;;;;;9.57;7.20;;;21.70;99.90;;;;;;4983402;28;20132;-31
2023/09/09 05:20:02;;;;;;;8.52;7.20;;;21.60;99.90;;;;;;4973044;28;20119;-30
2023/09/09 05:22:28;;;;;;;8.90;7.07;;;21.90;99.90;;;;;;4972413;28;20057;-30
2023/09/09 05:24:54;;;;;;;9.65;6.72;;;21.40;99.90;;;;;;4971608;28;20461;-32
2023/09/09 05:27:19;;;;;;;8.32;7.43;;;22.00;99.90;;;;;;4972261;28;20110;-30
2023/09/09 05:29:46;;;;;;;8.00;6.78;;;21.90;99.90;;;;;;4972427;28;20417;-31
2023/09/09 05:32:12;;;;;;;8.77;7.22;;;21.80;99.90;;;;;;4972569;28;20047;-32
2023/09/09 05:34:38;;;;;;;9.18;7.88;;;21.90;99.90;;;;;;4971724;28;20045;-32
2023/09/09 05:37:04;;;;;;;8.52;6.97;;;21.10;99.90;;;;;;4972033;28;20039;-31
2023/09/09 05:39:29;;;;;;;9.45;6.35;;;21.90;99.90;;;;;;4971846;28;20098;-32
2023/09/09 05:41:55;;;;;;;8.98;5.45;;;22.30;99.90;;;;;;4972600;28;20046;-31
2023/09/09 05:44:20;;;;;;;6.85;5.22;;;22.10;99.90;;;;;;4972157;28;20514;-31
2023/09/09 05:46:46;;;;;;;7.55;5.70;;;21.70;99.90;;;;;;4971075;28;20041;-31
2023/09/09 05:49:12;;;;;;;7.65;5.93;;;21.60;99.90;;;;;;4972292;28;20049;-31
2023/09/09 05:51:37;;;;;;;8.90;5.82;;;22.10;99.90;;;;;;4971570;28;20035;-31
2023/09/09 05:54:03;;;;;;;10.07;5.20;;;22.10;99.90;;;;;;4973016;28;20066;-31
2023/09/09 05:56:29;;;;;;;9.90;5.72;;;21.90;99.90;;;;;;4969981;28;20031;-30
2023/09/09 05:58:54;;;;;;;7.53;6.00;;;21.80;99.90;;;;;;4972078;28;20089;-31
2023/09/09 06:01:21;;;;;;;8.35;6.70;;;22.00;92.90;;;;;;4965304;28;20046;-31
2023/09/09 06:03:46;;;;;;;9.18;7.45;;;22.00;82.90;;;;;;4966133;28;20446;-30
2023/09/09 06:06:12;;;;;;;8.13;6.88;;;21.90;74.10;;;;;;4971712;28;20031;-31
2023/09/09 06:08:38;;;;;;;8.50;7.60;;;21.70;68.80;;;;;;4969504;28;20034;-32
2023/09/09 06:11:04;;;;;;;9.88;8.10;;;22.10;66.70;;;;;;4966623;28;20034;-31
2023/09/09 06:13:29;;;;;;;8.68;7.82;;;21.90;65.50;;;;;;4971680;28;20502;-31
2023/09/09 06:15:55;;;;;;;9.25;7.85;;;22.00;66.30;;;;;;4968629;28;20039;-30
2023/09/09 06:18:21;;;;;;;8.88;7.90;;;21.80;69.90;;;;;;4970386;28;20139;-31
2023/09/09 06:20:52;;;;;;;9.77;8.50;;;21.90;74.40;;;;;;4971052;28;20081;-31
2023/09/09 06:23:18;;;;;;;13.27;11.60;;;21.90;79.60;;;;;;4978706;28;20038;-31
2023/09/09 06:25:44;;;;;;;12.10;10.90;;;21.90;80.60;;;;;;4972525;28;20561;-31
2023/09/09 06:28:09;;;;;;;12.27;10.68;;;21.80;89.20;;;;;;4971852;28;20043;-31
2023/09/09 06:30:35;;;;;;;12.13;10.82;;;21.70;94.00;;;;;;4972183;28;20065;-30
2023/09/09 06:33:03;;;;;;;15.45;13.45;;;21.80;99.90;;;;;;4971815;28;20524;-30
2023/09/09 06:35:29;;;;;;;14.45;12.98;;;21.70;99.90;;;;;;4970780;28;20056;-31
2023/09/09 06:37:55;;;;;;;17.70;15.90;;;21.90;99.90;;;;;;4972111;28;20055;-29
2023/09/09 06:40:21;;;;;;;18.42;16.52;;;21.80;99.90;;;;;;4970660;28;20042;-30
2023/09/09 06:42:47;;;;;;;18.35;16.45;;;21.90;99.90;;;;;;4971474;28;20038;-31
2023/09/09 06:45:12;;;;;;;18.05;16.15;;;21.70;99.90;;;;;;4971925;28;20050;-30
2023/09/09 06:47:38;;;;;;;18.83;16.83;;;22.00;99.90;;;;;;4964449;28;20031;-31
2023/09/09 06:50:04;;;;;;;21.90;19.60;;;22.20;99.90;;;;;;4972006;28;20035;-30
2023/09/09 06:52:31;;;;;;;21.88;19.58;;;21.80;99.90;;;;;;4971563;28;20042;-31
2023/09/09 06:54:57;;;;;;;22.55;20.15;;;21.80;99.90;;;;;;4968593;28;20502;-31
2023/09/09 06:57:22;;;;;;;25.65;22.92;;;21.80;99.90;;;;;;4968558;28;20090;-30
2023/09/09 06:59:48;;;;;;;21.70;19.15;;;21.90;99.90;;;;;;4971818;28;20030;-30
2023/09/09 07:02:14;;;;;;;23.00;20.42;;;21.90;99.90;;;;;;4971962;28;20035;-32
2023/09/09 07:04:39;;;;;;;22.15;19.85;;;22.10;99.90;;;;;;4971785;28;20034;-30
2023/09/09 07:07:05;;;;;;;20.40;18.13;;;22.00;99.90;;;;;;4971131;28;20453;-30
2023/09/09 07:09:31;;;;;;;19.67;17.58;;;22.20;99.90;;;;;;4971665;28;20038;-32
2023/09/09 07:11:58;;;;;;;16.85;15.13;;;22.00;99.90;;;;;;4971149;28;20449;-31
2023/09/09 07:14:24;;;;;;;15.43;13.85;;;21.80;99.90;;;;;;4966663;28;20050;-31
2023/09/09 07:16:50;;;;;;;16.30;14.68;;;21.80;99.90;;;;;;4969107;28;20039;-30
2023/09/09 07:19:15;;;;;;;16.00;14.15;;;22.20;99.90;;;;;;4971040;28;20046;-31
2023/09/09 07:21:41;;;;;;;16.65;15.05;;;22.10;99.90;;;;;;4972342;28;20057;-30
2023/09/09 07:24:07;;;;;;;23.23;20.63;;;22.20;99.90;;;;;;4975357;28;20035;-31
2023/09/09 07:26:32;;;;;;;12.15;9.25;;;22.20;99.90;;;;;;4973470;28;20042;-30
2023/09/09 07:28:58;;;;;;;36.42;32.38;;;22.90;99.90;;;;;;4974943;28;20035;-31
2023/09/09 07:31:24;;;;;;;44.67;39.83;;;22.20;99.90;;;;;;4970094;28;20118;-30
2023/09/09 07:33:52;;;;;;;15.63;12.38;;;22.10;99.90;;;;;;4970064;28;20035;-31
2023/09/09 07:36:18;;;;;;;31.42;27.27;;;22.50;99.90;;;;;;4971766;28;20054;-30
2023/09/09 07:38:44;;;;;;;24.45;21.13;;;22.50;99.90;;;;;;4974428;28;20378;-30
2023/09/09 07:41:09;;;;;;;46.85;41.00;;;22.10;99.90;;;;;;4975708;28;20218;-31
2023/09/09 07:43:35;;;;;;;27.63;23.52;;;22.30;99.90;;;;;;4974777;28;20053;-31
2023/09/09 07:46:00;;;;;;;28.92;22.10;;;22.30;99.90;;;;;;4974988;28;20125;-31
2023/09/09 07:48:26;;;;;;;27.35;22.33;;;22.10;99.90;;;;;;4975194;28;20030;-30
2023/09/09 07:50:54;;;;;;;26.67;22.02;;;22.60;99.90;;;;;;4973306;28;20552;-31
2023/09/09 07:53:23;;;;;;;28.42;23.48;;;22.50;99.90;;;;;;4971910;28;20115;-31
2023/09/09 07:55:49;;;;;;;28.88;24.35;;;22.50;99.90;;;;;;4974015;28;20102;-31
2023/09/09 07:58:16;;;;;;;31.55;26.95;;;22.80;99.90;;;;;;4974896;28;20466;-31
2023/09/09 08:00:43;;;;;;;32.83;28.20;;;22.60;99.90;;;;;;4971108;28;20043;-31
2023/09/09 08:03:10;;;;;;;33.03;28.40;;;22.60;99.90;;;;;;4970606;28;20170;-31
2023/09/09 08:05:37;;;;;;;34.53;28.90;;;22.30;99.90;;;;;;4974268;28;20069;-30
2023/09/09 08:08:03;;;;;;;33.60;29.77;;;22.70;99.90;;;;;;4973681;28;20128;-30
2023/09/09 08:10:28;;;;;;;34.00;29.27;;;22.20;99.90;;;;;;4970541;28;20086;-31
2023/09/09 08:12:54;;;;;;;34.53;29.88;;;22.70;99.90;;;;;;4970681;28;20358;-31
2023/09/09 08:15:21;;;;;;;33.40;29.38;;;22.90;99.90;;;;;;4966963;28;20140;-31
2023/09/09 08:17:47;;;;;;;33.58;29.45;;;22.70;99.90;;;;;;4969055;28;20158;-31
2023/09/09 08:20:44;;;;;;;33.33;29.67;;;22.90;99.90;;;;;;4969242;28;20536;-30
2023/09/09 08:23:10;;;;;;;35.80;29.17;;;22.60;99.90;;;;;;4971109;28;20178;-32
2023/09/09 08:26:14;;;;;;;33.85;29.98;;;22.60;99.90;;;;;;4957175;28;20115;-31
2023/09/09 08:29:31;;;;;;;31.70;27.38;;;22.90;99.90;;;;;;4965063;28;20498;-35
2023/09/09 08:32:23;;;;;;;29.00;25.58;;;22.60;99.90;;;;;;4964410;28;20043;-30
2023/09/09 08:34:53;;;;;;;28.42;24.45;;;22.70;99.90;;;;;;4966357;28;20110;-31
2023/09/09 08:37:18;;;;;;;28.95;24.95;;;23.10;99.90;;;;;;4971584;28;20409;-31
2023/09/09 08:39:45;;;;;;;27.85;23.77;;;22.60;99.90;;;;;;4968330;28;20043;-32
2023/09/09 08:42:23;;;;;;;27.10;22.63;;;22.80;99.90;;;;;;4973390;28;20452;-33
2023/09/09 08:45:19;;;;;;;24.10;21.50;;;23.00;99.90;;;;;;4962797;28;20046;-32
2023/09/09 08:47:47;;;;;;;25.13;20.90;;;23.00;99.90;;;;;;4964886;28;20085;-31
2023/09/09 08:50:15;;;;;;;24.27;20.65;;;22.90;99.90;;;;;;4969620;28;20053;-32
2023/09/09 08:52:42;;;;;;;24.58;18.50;;;22.40;99.90;;;;;;4972990;28;20046;-32
2023/09/09 08:55:09;;;;;;;20.73;16.75;;;22.80;99.90;;;;;;4973615;28;20426;-32
2023/09/09 08:57:35;;;;;;;19.42;15.93;;;23.70;99.90;;;;;;4972936;28;20045;-31
2023/09/09 09:00:04;;;;;;;18.15;15.68;;;22.70;99.90;;;;;;4972735;28;20032;-32
2023/09/09 09:02:30;;;;;;;16.88;14.73;;;22.50;99.90;;;;;;4968665;28;20046;-32
2023/09/09 09:04:57;;;;;;;17.00;14.57;;;23.70;99.90;;;;;;4971848;28;20121;-32
2023/09/09 09:07:27;;;;;;;16.13;13.38;;;22.90;99.90;;;;;;5032524;22;20046;-36
2023/09/09 09:09:54;;;;;;;16.88;14.07;;;22.90;99.90;;;;;;4973731;28;20046;-36
2023/09/09 09:12:21;;;;;;;15.20;12.10;;;23.10;99.90;;;;;;4971245;28;20781;-36
2023/09/09 09:14:47;;;;;;;13.65;11.82;;;22.60;99.90;;;;;;4973689;28;20027;-35
2023/09/09 09:17:17;;;;;;;14.18;11.93;;;22.80;99.90;;;;;;4973459;28;20375;-34
2023/09/09 09:19:43;;;;;;;13.35;11.35;;;23.00;99.90;;;;;;4967629;28;20074;-37
2023/09/09 09:22:08;;;;;;;14.13;11.80;;;22.90;99.90;;;;;;4968191;28;20050;-33
2023/09/09 09:24:45;;;;;;;11.15;9.82;;;22.50;99.90;;;;;;4969760;28;20035;-37
2023/09/09 09:27:12;;;;;;;10.60;9.45;;;22.80;99.90;;;;;;4964866;28;21294;-36
2023/09/09 09:29:45;;;;;;;12.27;9.50;;;23.00;99.90;;;;;;4970877;28;20035;-34
2023/09/09 09:32:12;;;;;;;10.70;9.15;;;23.70;99.90;;;;;;4972837;28;20050;-37
2023/09/09 09:34:37;;;;;;;10.60;8.98;;;23.40;99.90;;;;;;4973099;28;20074;-34
2023/09/09 09:37:09;;;;;;;9.80;8.38;;;22.90;99.90;;;;;;4972431;28;20069;-34
2023/09/09 09:39:35;;;;;;;10.07;8.25;;;23.80;99.90;;;;;;4970134;28;20406;-34
2023/09/09 09:42:04;;;;;;;9.20;7.10;;;22.90;99.90;;;;;;4972791;28;20031;-35
2023/09/09 09:44:30;;;;;;;11.10;8.32;;;23.70;99.90;;;;;;4972406;28;20043;-35
2023/09/09 09:47:04;;;;;;;9.85;7.78;;;22.90;99.90;;;;;;4967231;28;20039;-36
2023/09/09 09:49:41;;;;;;;10.27;7.60;;;22.70;99.90;;;;;;4968261;28;20035;-37
2023/09/09 09:52:08;;;;;;;10.48;8.20;;;22.80;99.90;;;;;;4972302;28;20449;-36
2023/09/09 09:54:35;;;;;;;9.38;7.43;;;23.90;99.90;;;;;;4971830;28;20034;-34
2023/09/09 09:57:02;;;;;;;9.63;7.47;;;22.60;99.90;;;;;;4969696;28;20533;-34
2023/09/09 09:59:33;;;;;;;8.65;7.43;;;23.10;99.90;;;;;;4972585;28;20047;-36
2023/09/09 10:02:00;;;;;;;9.07;7.28;;;23.10;99.90;;;;;;4967577;28;20042;-37
2023/09/09 10:04:30;;;;;;;8.25;6.85;;;23.70;99.90;;;;;;4970546;28;20076;-36
2023/09/09 10:06:58;;;;;;;8.40;7.50;;;24.10;99.90;;;;;;4968857;28;20046;-38
2023/09/09 10:09:33;;;;;;;8.40;7.22;;;22.90;99.90;;;;;;4967252;28;20117;-34
2023/09/09 10:12:18;;;;;;;9.95;6.78;;;23.40;99.90;;;;;;4969237;28;20065;-34
2023/09/09 10:14:44;;;;;;;8.57;6.68;;;23.00;99.90;;;;;;4967511;28;20498;-36
2023/09/09 10:17:14;;;;;;;7.93;6.35;;;22.90;99.90;;;;;;4966692;28;20030;-34
2023/09/09 10:19:41;;;;;;;7.88;6.55;;;24.10;99.90;;;;;;4972303;28;20054;-35
2023/09/09 10:22:06;;;;;;;8.07;6.32;;;23.30;99.90;;;;;;4967765;28;20046;-37
2023/09/09 10:24:33;;;;;;;9.18;6.90;;;23.10;99.90;;;;;;4971129;28;20035;-34
2023/09/09 10:27:04;;;;;;;7.95;6.53;;;23.80;99.90;;;;;;4968518;28;20034;-37
2023/09/09 10:29:31;;;;;;;8.23;6.60;;;23.50;99.90;;;;;;4970844;28;20482;-36
2023/09/09 10:32:04;;;;;;;7.40;6.28;;;23.20;99.90;;;;;;4967390;28;20054;-35
2023/09/09 10:34:33;;;;;;;7.65;6.35;;;23.10;99.90;;;;;;4969905;28;20046;-37
2023/09/09 10:37:00;;;;;;;8.02;6.45;;;23.30;99.90;;;;;;4961785;28;20517;-37
2023/09/09 10:39:27;;;;;;;7.15;6.00;;;22.90;99.90;;;;;;4961966;28;20043;-37
2023/09/09 10:41:57;;;;;;;7.45;5.95;;;23.20;99.90;;;;;;4964420;28;20375;-35
2023/09/09 10:44:22;;;;;;;7.70;5.75;;;23.00;99.90;;;;;;4963621;28;20062;-38
2023/09/09 10:46:54;;;;;;;7.47;6.03;;;23.10;99.90;;;;;;4966662;28;20088;-34
2023/09/09 10:49:25;;;;;;;7.63;6.10;;;22.90;99.90;;;;;;4965914;28;20054;-34
2023/09/09 10:51:51;;;;;;;7.47;6.07;;;23.00;99.90;;;;;;4963246;28;20031;-34
2023/09/09 10:54:23;;;;;;;7.30;5.57;;;24.10;99.90;;;;;;4967648;28;20054;-33
2023/09/09 10:56:54;;;;;;;7.55;5.95;;;23.50;99.90;;;;;;4966438;28;20038;-37
2023/09/09 10:59:31;;;;;;;7.28;5.80;;;24.00;99.90;;;;;;4966527;28;20058;-34
2023/09/09 11:02:11;;;;;;;7.60;6.03;;;23.50;99.90;;;;;;4963808;28;20046;-36
2023/09/09 11:04:39;;;;;;;8.13;6.05;;;23.40;99.90;;;;;;4970604;28;20401;-34
2023/09/09 11:07:13;;;;;;;7.38;6.03;;;23.80;99.90;;;;;;4966732;28;20046;-34
2023/09/09 11:09:49;;;;;;;7.28;5.57;;;22.80;99.90;;;;;;4971021;28;20034;-34
2023/09/09 11:12:16;;;;;;;7.80;5.90;;;23.10;99.90;;;;;;4961666;28;20035;-37
2023/09/09 11:14:46;;;;;;;7.25;5.70;;;23.20;99.90;;;;;;4965982;28;20045;-35
2023/09/09 11:17:12;;;;;;;7.22;5.60;;;23.00;99.90;;;;;;4969023;28;20445;-34
2023/09/09 11:19:39;;;;;;;7.13;5.35;;;23.90;99.90;;;;;;4970903;28;20037;-37
2023/09/09 11:22:07;;;;;;;8.48;5.82;;;23.30;99.90;;;;;;4971218;28;20039;-38
2023/09/09 11:24:34;;;;;;;7.50;5.60;;;23.50;99.90;;;;;;4971092;28;20039;-34
2023/09/09 11:27:00;;;;;;;8.10;5.43;;;23.30;99.90;;;;;;4968555;28;20074;-34
2023/09/09 11:29:25;;;;;;;91.03;14.43;;;23.10;99.90;;;;;;4964534;28;20356;-35
2023/09/09 11:31:52;;;;;;;10.70;6.60;;;23.50;99.90;;;;;;4967945;28;20066;-34
2023/09/09 11:34:26;;;;;;;8.57;5.93;;;23.30;99.90;;;;;;4962667;28;20047;-36
2023/09/09 11:36:53;;;;;;;11.60;6.78;;;24.10;99.90;;;;;;4970771;28;20042;-36
2023/09/09 11:39:19;;;;;;;15.27;7.22;;;23.30;99.90;;;;;;4970997;28;20047;-36
2023/09/09 11:41:45;;;;;;;12.75;6.93;;;23.30;99.90;;;;;;4970893;28;20049;-33
2023/09/09 11:44:10;;;;;;;24.70;7.07;;;23.90;99.90;;;;;;4969691;28;20070;-36
2023/09/09 11:46:41;;;;;;;21.67;8.45;;;23.40;99.90;;;;;;4969394;28;20046;-36
2023/09/09 11:49:08;;;;;;;17.88;6.80;;;23.40;99.90;;;;;;4969190;28;20066;-37
2023/09/09 11:51:34;;;;;;;22.30;7.45;;;23.00;99.90;;;;;;4970030;28;20508;-34
2023/09/09 11:54:00;;;;;;;19.48;7.55;;;24.10;99.90;;;;;;4971029;28;20489;-34
2023/09/09 11:56:27;;;;;;;17.65;6.95;;;23.60;99.90;;;;;;4970029;28;20062;-35
2023/09/09 11:58:53;;;;;;;17.77;7.20;;;23.30;99.90;;;;;;4969834;28;20038;-36
2023/09/09 12:01:20;;;;;;;14.40;6.70;;;23.30;99.90;;;;;;4970879;28;20043;-35
2023/09/09 12:03:48;;;;;;;14.60;6.95;;;23.10;99.90;;;;;;4968591;28;20047;-35
2023/09/09 12:06:19;;;;;;;12.07;6.18;;;23.30;99.90;;;;;;4966540;28;20122;-38
2023/09/09 12:08:50;;;;;;;13.07;5.93;;;23.50;99.90;;;;;;4965670;28;20413;-34
2023/09/09 12:11:17;;;;;;;16.27;7.07;;;24.00;99.90;;;;;;4972480;28;20508;-36
2023/09/09 12:13:44;;;;;;;11.27;5.53;;;23.60;99.90;;;;;;4972233;28;20046;-34
2023/09/09 12:16:10;;;;;;;15.63;6.05;;;24.60;99.90;;;;;;4972457;28;20465;-34
2023/09/09 12:18:36;;;;;;;11.57;6.25;;;24.60;99.90;;;;;;4973400;28;20056;-37
2023/09/09 12:21:03;;;;;;;11.57;6.00;;;23.50;99.90;;;;;;4971570;28;20074;-34
2023/09/09 12:23:33;;;;;;;11.77;5.43;;;23.40;99.90;;;;;;4973050;28;20046;-33
2023/09/09 12:26:13;;;;;;;12.13;6.07;;;23.30;99.90;;;;;;4973375;28;20041;-42
2023/09/09 12:28:47;;;;;;;10.48;6.03;;;23.50;99.90;;;;;;4971524;28;20030;-42
2023/09/09 12:31:13;;;;;;;13.27;5.72;;;24.00;99.90;;;;;;4972098;28;20114;-41
2023/09/09 12:33:41;;;;;;;14.07;6.63;;;23.20;99.90;;;;;;4973305;28;20142;-41
2023/09/09 12:36:17;;;;;;;17.20;7.93;;;24.40;99.90;;;;;;4971516;28;20049;-41